createdAt,value
2018-10-07T00:01:08.664Z,2.47
2018-10-07T00:03:36.428Z,1.40
2018-10-07T00:06:04.286Z,1.97
2018-10-07T00:08:32.109Z,4.10
2018-10-07T00:10:59.963Z,2.57
2018-10-07T00:13:27.718Z,1.40
2018-10-07T00:15:55.482Z,3.07
2018-10-07T00:18:23.306Z,2.00
2018-10-07T00:20:51.079Z,2.40
2018-10-07T00:23:18.854Z,2.87
2018-10-07T00:25:46.619Z,2.47
2018-10-07T00:28:14.386Z,1.87
2018-10-07T00:30:42.159Z,2.03
2018-10-07T00:33:09.923Z,1.80
2018-10-07T00:35:37.685Z,1.73
2018-10-07T00:38:05.515Z,3.10
2018-10-07T00:40:33.325Z,2.73
2018-10-07T00:43:01.073Z,1.83
2018-10-07T00:45:29.490Z,1.70
2018-10-07T00:47:57.305Z,1.50
2018-10-07T00:50:25.128Z,1.87
2018-10-07T00:52:52.916Z,1.70
2018-10-07T00:55:20.811Z,1.50
2018-10-07T00:57:48.590Z,1.90
2018-10-07T01:00:16.391Z,2.70
2018-10-07T01:02:44.314Z,2.07
2018-10-07T01:05:12.124Z,2.17
2018-10-07T01:07:39.954Z,5.00
2018-10-07T01:10:07.745Z,2.07
2018-10-07T01:12:35.570Z,2.10
2018-10-07T01:15:03.473Z,1.97
2018-10-07T01:17:31.285Z,1.40
2018-10-07T01:19:59.147Z,3.93
2018-10-07T01:22:26.978Z,1.50
2018-10-07T01:24:54.763Z,1.60
2018-10-07T01:27:22.590Z,2.27
2018-10-07T01:29:50.424Z,2.53
2018-10-07T01:32:18.218Z,2.10
2018-10-07T01:34:45.975Z,5.10
2018-10-07T01:37:13.782Z,2.17
2018-10-07T01:39:41.618Z,3.40
2018-10-07T01:42:09.472Z,4.33
2018-10-07T01:44:37.238Z,2.07
2018-10-07T01:47:05.110Z,5.00
2018-10-07T01:49:32.878Z,2.70
2018-10-07T01:52:00.679Z,2.57
2018-10-07T01:54:28.506Z,2.30
2018-10-07T01:56:56.306Z,2.37
2018-10-07T01:59:24.280Z,1.87
2018-10-07T02:01:52.014Z,4.57
2018-10-07T02:04:19.813Z,3.83
2018-10-07T02:06:47.606Z,2.50
2018-10-07T02:09:15.366Z,4.37
2018-10-07T02:11:43.154Z,2.20
2018-10-07T02:14:10.915Z,4.07
2018-10-07T02:16:38.750Z,1.83
2018-10-07T02:19:06.777Z,6.10
2018-10-07T02:21:34.595Z,4.70
2018-10-07T02:24:02.477Z,3.63
2018-10-07T02:26:30.234Z,2.70
2018-10-07T02:28:58.054Z,2.27
2018-10-07T02:31:25.856Z,2.30
2018-10-07T02:33:53.760Z,4.90
2018-10-07T02:36:21.566Z,5.17
2018-10-07T02:38:49.428Z,2.67
2018-10-07T02:41:17.289Z,3.17
2018-10-07T02:43:45.075Z,6.77
2018-10-07T02:46:12.894Z,2.77
2018-10-07T02:48:40.675Z,2.60
2018-10-07T02:51:08.604Z,3.60
2018-10-07T02:53:36.441Z,3.03
2018-10-07T02:56:04.263Z,5.63
2018-10-07T02:58:32.118Z,6.13
2018-10-07T03:00:59.891Z,3.17
2018-10-07T03:03:27.734Z,3.70
2018-10-07T03:05:55.534Z,5.57
2018-10-07T03:08:23.404Z,10.37
2018-10-07T03:10:51.189Z,5.97
2018-10-07T03:13:18.995Z,5.87
2018-10-07T03:15:46.775Z,4.63
2018-10-07T03:18:14.556Z,9.73
2018-10-07T03:20:42.362Z,5.40
2018-10-07T03:23:10.159Z,7.57
2018-10-07T03:25:37.995Z,7.27
2018-10-07T03:28:05.818Z,6.87
2018-10-07T03:30:33.617Z,10.20
2018-10-07T03:33:01.421Z,7.00
2018-10-07T03:35:29.177Z,5.47
2018-10-07T03:37:56.998Z,6.40
2018-10-07T03:40:24.794Z,8.70
2018-10-07T03:42:52.678Z,6.27
2018-10-07T03:45:20.439Z,7.17
2018-10-07T03:47:48.258Z,5.83
2018-10-07T03:50:16.090Z,7.33
2018-10-07T03:52:43.889Z,10.07
2018-10-07T03:55:11.717Z,6.30
2018-10-07T03:57:39.554Z,5.93
2018-10-07T04:00:07.457Z,11.17
2018-10-07T04:02:35.290Z,7.20
2018-10-07T04:05:03.068Z,9.27
2018-10-07T04:07:30.853Z,6.60
2018-10-07T04:09:58.914Z,9.07
2018-10-07T04:12:26.738Z,9.57
2018-10-07T04:14:54.506Z,9.43
2018-10-07T04:17:22.279Z,6.77
2018-10-07T04:19:50.116Z,7.03
2018-10-07T04:22:17.937Z,6.63
2018-10-07T04:24:45.900Z,9.47
2018-10-07T04:27:13.685Z,7.63
2018-10-07T04:29:41.465Z,10.13
2018-10-07T04:32:09.246Z,17.30
2018-10-07T04:34:37.027Z,15.17
2018-10-07T04:37:04.837Z,11.77
2018-10-07T04:39:32.644Z,10.03
2018-10-07T04:42:00.552Z,11.33
2018-10-07T04:44:28.372Z,11.10
2018-10-07T04:46:56.134Z,9.50
2018-10-07T04:49:23.971Z,10.70
2018-10-07T04:51:51.769Z,8.83
2018-10-07T04:54:19.573Z,9.67
2018-10-07T04:56:47.372Z,15.23
2018-10-07T04:59:15.218Z,10.50
2018-10-07T05:01:42.983Z,7.00
2018-10-07T05:04:10.729Z,7.37
2018-10-07T05:06:38.637Z,8.87
2018-10-07T05:09:07.484Z,10.10
2018-10-07T05:11:35.398Z,9.70
2018-10-07T05:14:04.817Z,9.97
2018-10-07T05:16:34.069Z,9.17
2018-10-07T05:19:01.955Z,9.80
2018-10-07T05:21:29.954Z,9.00
2018-10-07T05:23:58.502Z,8.57
2018-10-07T05:26:26.355Z,13.57
2018-10-07T05:28:54.258Z,11.07
2018-10-07T05:31:22.064Z,11.63
2018-10-07T05:33:49.873Z,7.17
2018-10-07T05:36:17.694Z,7.97
2018-10-07T05:38:45.574Z,7.47
2018-10-07T05:41:13.330Z,9.90
2018-10-07T05:43:41.113Z,15.27
2018-10-07T05:46:08.906Z,12.03
2018-10-07T05:48:36.678Z,7.97
2018-10-07T05:51:04.612Z,8.50
2018-10-07T05:53:32.422Z,7.60
2018-10-07T05:56:00.310Z,8.03
2018-10-07T05:58:28.185Z,7.50
2018-10-07T06:00:56.690Z,12.20
2018-10-07T06:04:02.165Z,11.87
2018-10-07T06:06:30.373Z,5.67
2018-10-07T06:08:58.582Z,9.80
2018-10-07T06:11:26.481Z,12.27
2018-10-07T06:13:54.281Z,9.47
2018-10-07T06:16:22.082Z,10.80
2018-10-07T06:18:49.879Z,6.47
2018-10-07T06:21:17.682Z,9.53
2018-10-07T06:23:45.506Z,7.43
2018-10-07T06:26:13.306Z,4.90
2018-10-07T06:28:42.723Z,8.93
2018-10-07T06:31:10.567Z,11.10
2018-10-07T06:33:38.366Z,6.60
2018-10-07T06:36:06.262Z,8.77
2018-10-07T06:38:34.093Z,10.10
2018-10-07T06:41:01.965Z,8.67
2018-10-07T06:43:29.754Z,16.77
2018-10-07T06:45:57.676Z,12.83
2018-10-07T06:48:25.478Z,11.60
2018-10-07T06:50:53.318Z,13.70
2018-10-07T06:53:21.233Z,12.87
2018-10-07T06:55:49.029Z,18.47
2018-10-07T06:58:16.899Z,12.00
2018-10-07T07:00:44.671Z,11.20
2018-10-07T07:03:12.511Z,9.47
2018-10-07T07:05:40.334Z,14.57
2018-10-07T07:08:08.228Z,10.40
2018-10-07T07:10:36.088Z,9.00
2018-10-07T07:13:04.028Z,11.53
2018-10-07T07:15:31.878Z,12.17
2018-10-07T07:17:59.658Z,12.23
2018-10-07T07:20:27.559Z,9.70
2018-10-07T07:22:55.373Z,8.53
2018-10-07T07:25:23.153Z,7.90
2018-10-07T07:27:50.926Z,9.70
2018-10-07T07:30:18.782Z,5.33
2018-10-07T07:32:46.569Z,6.80
2018-10-07T07:35:14.317Z,5.60
2018-10-07T07:37:42.150Z,8.70
2018-10-07T07:40:09.973Z,6.80
2018-10-07T07:42:37.818Z,6.40
2018-10-07T07:45:05.625Z,8.07
2018-10-07T07:47:33.434Z,6.17
2018-10-07T07:50:01.258Z,7.70
2018-10-07T07:52:29.057Z,4.97
2018-10-07T07:54:56.906Z,7.57
2018-10-07T07:57:24.662Z,4.83
2018-10-07T07:59:52.443Z,3.57
2018-10-07T08:02:20.268Z,8.67
2018-10-07T08:04:48.026Z,5.70
2018-10-07T08:07:15.832Z,3.07
2018-10-07T08:09:43.586Z,3.27
2018-10-07T08:12:11.414Z,3.23
2018-10-07T08:14:39.167Z,4.33
2018-10-07T08:17:06.950Z,2.57
2018-10-07T08:19:34.734Z,4.33
2018-10-07T08:22:02.513Z,4.87
2018-10-07T08:24:30.833Z,3.17
2018-10-07T08:26:58.634Z,5.47
2018-10-07T08:29:26.564Z,4.13
2018-10-07T08:31:54.291Z,6.50
2018-10-07T08:34:23.015Z,2.90
2018-10-07T08:36:50.999Z,3.50
2018-10-07T08:39:18.796Z,3.10
2018-10-07T08:41:46.851Z,4.87
2018-10-07T08:44:14.751Z,2.00
2018-10-07T08:46:42.631Z,3.13
2018-10-07T08:49:10.409Z,2.57
2018-10-07T08:51:38.177Z,5.17
2018-10-07T08:54:05.953Z,4.00
2018-10-07T08:56:33.825Z,2.00
2018-10-07T08:59:01.769Z,2.77
2018-10-07T09:01:29.561Z,4.53
2018-10-07T09:03:57.389Z,1.50
2018-10-07T09:06:25.189Z,2.53
2018-10-07T09:08:53.082Z,2.60
2018-10-07T09:11:20.859Z,2.77
2018-10-07T09:13:48.655Z,2.20
2018-10-07T09:16:16.549Z,2.80
2018-10-07T09:18:44.314Z,2.67
2018-10-07T09:21:12.102Z,3.47
2018-10-07T09:23:39.910Z,2.10
2018-10-07T09:26:07.666Z,5.30
2018-10-07T09:28:35.515Z,1.80
2018-10-07T09:31:03.286Z,2.53
2018-10-07T09:33:31.496Z,2.30
2018-10-07T09:35:59.289Z,2.97
2018-10-07T09:38:27.037Z,3.13
2018-10-07T09:40:54.850Z,2.93
2018-10-07T09:43:22.622Z,2.43
2018-10-07T09:45:50.510Z,2.03
2018-10-07T09:48:18.335Z,2.50
2018-10-07T09:50:46.205Z,4.10
2018-10-07T09:53:13.957Z,4.60
2018-10-07T09:55:41.708Z,49.33
2018-10-07T09:58:09.575Z,2.90
2018-10-07T10:00:39.333Z,2.47
2018-10-07T10:03:07.377Z,2.13
2018-10-07T10:05:35.250Z,2.00
2018-10-07T10:08:03.259Z,4.30
2018-10-07T10:10:31.030Z,3.63
2018-10-07T10:12:58.838Z,3.27
2018-10-07T10:15:26.657Z,3.00
2018-10-07T10:17:56.954Z,3.20
2018-10-07T10:20:25.572Z,12.27
2018-10-07T10:23:00.142Z,3.93
2018-10-07T10:27:38.827Z,2.33
2018-10-07T10:30:42.449Z,2.50
2018-10-07T10:33:15.477Z,3.03
2018-10-07T10:35:49.893Z,3.40
2018-10-07T10:38:23.945Z,3.10
2018-10-07T10:40:57.554Z,4.40
2018-10-07T10:43:27.339Z,7.47
2018-10-07T10:45:58.053Z,5.67
2018-10-07T10:48:27.039Z,4.27
2018-10-07T10:50:58.173Z,2.87
2018-10-07T10:53:34.858Z,2.63
2018-10-07T10:56:08.196Z,3.63
2018-10-07T10:58:39.291Z,3.20
2018-10-07T11:01:14.621Z,2.20
2018-10-07T11:05:49.646Z,2.17
2018-10-07T11:08:23.022Z,4.13
2018-10-07T11:10:56.347Z,3.63
2018-10-07T11:13:32.536Z,4.43
2018-10-07T11:18:10.047Z,3.17
2018-10-07T11:20:44.185Z,4.20
2018-10-07T11:23:17.189Z,4.70
2018-10-07T11:26:21.231Z,4.20
2018-10-07T11:28:53.421Z,3.60
2018-10-07T11:31:27.046Z,2.83
2018-10-07T11:34:00.941Z,2.80
2018-10-07T11:36:36.998Z,3.33
2018-10-07T11:39:08.566Z,12.00
2018-10-07T11:41:38.994Z,4.83
2018-10-07T11:44:10.501Z,3.70
2018-10-07T11:48:46.293Z,5.00
2018-10-07T11:51:23.837Z,3.37
2018-10-07T11:53:53.074Z,4.33
2018-10-07T11:56:20.866Z,4.23
2018-10-07T11:58:48.749Z,2.40
2018-10-07T12:01:16.539Z,2.93
2018-10-07T12:03:44.355Z,2.80
2018-10-07T12:06:12.169Z,4.10
2018-10-07T12:08:40.059Z,2.70
2018-10-07T12:11:07.921Z,6.27
2018-10-07T12:13:35.704Z,2.73
2018-10-07T12:16:03.555Z,6.10
2018-10-07T12:18:31.360Z,4.87
2018-10-07T12:20:59.189Z,3.43
2018-10-07T12:23:27.144Z,4.03
2018-10-07T12:25:55.016Z,4.27
2018-10-07T12:28:22.960Z,3.27
2018-10-07T12:30:50.758Z,3.13
2018-10-07T12:33:18.755Z,3.20
2018-10-07T12:35:46.832Z,2.60
2018-10-07T12:38:14.785Z,4.77
2018-10-07T12:40:42.599Z,5.60
2018-10-07T12:43:10.576Z,2.73
2018-10-07T12:45:38.426Z,2.87
2018-10-07T12:48:06.291Z,3.87
2018-10-07T12:50:34.119Z,2.83
2018-10-07T12:53:03.330Z,3.90
2018-10-07T12:55:31.173Z,2.97
2018-10-07T12:57:58.967Z,3.70
2018-10-07T13:00:26.800Z,3.97
2018-10-07T13:02:54.625Z,4.80
2018-10-07T13:05:22.549Z,2.90
2018-10-07T13:07:50.335Z,2.93
2018-10-07T13:10:18.154Z,2.70
2018-10-07T13:12:45.984Z,2.73
2018-10-07T13:15:13.750Z,2.03
2018-10-07T13:17:41.587Z,3.10
2018-10-07T13:20:09.356Z,2.63
2018-10-07T13:22:37.140Z,6.67
2018-10-07T13:25:05.034Z,3.20
2018-10-07T13:27:32.805Z,2.37
2018-10-07T13:30:00.628Z,2.87
2018-10-07T13:32:28.423Z,2.53
2018-10-07T13:34:56.315Z,2.57
2018-10-07T13:37:24.092Z,5.03
2018-10-07T13:39:51.906Z,2.87
2018-10-07T13:42:20.113Z,2.60
2018-10-07T13:44:48.025Z,4.67
2018-10-07T13:47:15.973Z,2.43
2018-10-07T13:49:43.846Z,2.50
2018-10-07T13:52:11.816Z,2.77
2018-10-07T13:54:39.611Z,2.83
2018-10-07T13:57:07.627Z,2.40
2018-10-07T13:59:35.515Z,3.13
2018-10-07T14:02:03.487Z,3.20
2018-10-07T14:04:31.300Z,2.30
2018-10-07T14:06:59.172Z,4.87
2018-10-07T14:09:27.181Z,2.50
2018-10-07T14:11:55.007Z,2.63
2018-10-07T14:14:22.912Z,2.93
2018-10-07T14:16:50.825Z,2.33
2018-10-07T14:19:18.808Z,4.33
2018-10-07T14:21:46.694Z,2.60
2018-10-07T14:24:14.534Z,4.60
2018-10-07T14:26:42.441Z,2.90
2018-10-07T14:29:10.434Z,3.53
2018-10-07T14:31:38.271Z,4.10
2018-10-07T14:34:06.113Z,4.17
2018-10-07T14:36:33.956Z,7.07
2018-10-07T14:39:01.918Z,4.90
2018-10-07T14:41:29.736Z,3.60
2018-10-07T14:43:57.662Z,3.70
2018-10-07T14:46:25.470Z,5.33
2018-10-07T14:48:53.338Z,5.30
2018-10-07T14:51:21.235Z,3.50
2018-10-07T14:53:49.302Z,15.30
2018-10-07T14:56:17.223Z,4.33
2018-10-07T14:58:45.115Z,5.63
2018-10-07T15:01:13.055Z,4.20
2018-10-07T15:03:40.920Z,3.63
2018-10-07T15:06:08.708Z,3.10
2018-10-07T15:08:36.598Z,3.20
2018-10-07T15:11:04.492Z,4.93
2018-10-07T15:13:32.360Z,2.80
2018-10-07T15:16:00.512Z,4.27
2018-10-07T15:18:28.639Z,2.83
2018-10-07T15:20:56.454Z,5.33
2018-10-07T15:23:24.412Z,4.70
2018-10-07T15:25:52.329Z,2.80
2018-10-07T15:28:20.207Z,4.10
2018-10-07T15:30:48.554Z,4.80
2018-10-07T15:33:16.654Z,3.77
2018-10-07T15:35:44.647Z,5.87
2018-10-07T15:38:12.543Z,9.47
2018-10-07T15:40:40.513Z,5.17
2018-10-07T15:43:08.486Z,40.63
2018-10-07T15:45:36.438Z,118.87
2018-10-07T15:48:04.445Z,388.73
2018-10-07T15:50:32.396Z,233.73
2018-10-07T15:53:00.413Z,148.90
2018-10-07T15:55:28.402Z,100.17
2018-10-07T15:57:56.383Z,40.40
2018-10-07T16:00:24.351Z,41.03
2018-10-07T16:02:52.320Z,44.83
2018-10-07T16:05:20.283Z,38.10
2018-10-07T16:07:48.245Z,34.57
2018-10-07T16:10:16.474Z,50.93
2018-10-07T16:12:44.385Z,14.23
2018-10-07T16:15:12.329Z,10.43
2018-10-07T16:17:40.326Z,11.67
2018-10-07T16:20:08.172Z,20.83
2018-10-07T16:22:36.705Z,21.33
2018-10-07T16:25:04.680Z,16.57
2018-10-07T16:27:32.662Z,24.80
2018-10-07T16:30:00.591Z,14.13
2018-10-07T16:32:28.793Z,7.50
2018-10-07T16:34:57.024Z,23.83
2018-10-07T16:37:24.936Z,17.83
2018-10-07T16:39:52.832Z,16.57
2018-10-07T16:42:20.673Z,14.47
2018-10-07T16:44:48.561Z,14.23
2018-10-07T16:47:16.537Z,12.00
2018-10-07T16:49:44.492Z,19.83
2018-10-07T16:52:12.482Z,20.80
2018-10-07T16:54:40.408Z,28.10
2018-10-07T16:57:08.393Z,30.00
2018-10-07T16:59:36.365Z,31.30
2018-10-07T17:02:04.308Z,25.27
2018-10-07T17:04:32.270Z,19.30
2018-10-07T17:07:00.320Z,17.40
2018-10-07T17:09:28.239Z,10.97
2018-10-07T17:11:56.144Z,10.93
2018-10-07T17:14:24.091Z,13.97
2018-10-07T17:16:52.203Z,18.40
2018-10-07T17:19:20.221Z,14.57
2018-10-07T17:21:48.225Z,14.20
2018-10-07T17:24:16.157Z,10.90
2018-10-07T17:26:44.079Z,9.03
2018-10-07T17:29:12.235Z,7.27
2018-10-07T17:31:40.107Z,6.47
2018-10-07T17:34:08.118Z,7.33
2018-10-07T17:36:36.051Z,9.00
2018-10-07T17:39:05.274Z,7.30
2018-10-07T17:41:33.262Z,14.90
2018-10-07T17:44:01.175Z,8.50
2018-10-07T17:46:29.165Z,9.83
2018-10-07T17:48:57.221Z,8.67
2018-10-07T17:51:25.219Z,6.43
2018-10-07T17:53:53.157Z,11.17
2018-10-07T17:56:21.104Z,14.03
2018-10-07T17:58:49.069Z,12.93
2018-10-07T18:01:17.045Z,10.23
2018-10-07T18:03:44.995Z,12.53
2018-10-07T18:06:12.998Z,15.73
2018-10-07T18:08:41.104Z,13.57
2018-10-07T18:11:09.071Z,10.53
2018-10-07T18:13:38.691Z,10.03
2018-10-07T18:16:06.690Z,12.63
2018-10-07T18:18:34.753Z,8.77
2018-10-07T18:21:02.920Z,9.97
2018-10-07T18:23:30.895Z,12.47
2018-10-07T18:25:58.951Z,8.60
2018-10-07T18:28:26.887Z,15.90
2018-10-07T18:30:54.952Z,9.67
2018-10-07T18:33:22.888Z,21.23
2018-10-07T18:35:50.890Z,11.70
2018-10-07T18:38:18.880Z,13.07
2018-10-07T18:40:46.816Z,15.90
2018-10-07T18:43:17.277Z,29.53
2018-10-07T18:45:45.194Z,17.17
2018-10-07T18:48:13.220Z,25.50
2018-10-07T18:50:41.027Z,23.23
2018-10-07T18:53:08.799Z,19.87
2018-10-07T18:55:36.667Z,19.57
2018-10-07T18:58:04.443Z,16.13
2018-10-07T19:00:32.342Z,17.20
2018-10-07T19:03:00.257Z,19.23
2018-10-07T19:05:27.944Z,18.70
2018-10-07T19:07:55.821Z,14.50
2018-10-07T19:10:23.614Z,15.13
2018-10-07T19:12:51.428Z,18.07
2018-10-07T19:15:19.250Z,16.93
2018-10-07T19:17:47.087Z,12.87
2018-10-07T19:20:14.919Z,12.57
2018-10-07T19:22:42.687Z,11.73
2018-10-07T19:25:10.534Z,9.90
2018-10-07T19:27:38.314Z,11.87
2018-10-07T19:30:06.577Z,18.47
2018-10-07T19:32:34.369Z,14.67
2018-10-07T19:35:02.235Z,11.60
2018-10-07T19:37:30.163Z,11.73
2018-10-07T19:39:57.793Z,10.87
2018-10-07T19:42:25.655Z,10.77
2018-10-07T19:44:53.626Z,20.60
2018-10-07T19:47:21.447Z,63.50
2018-10-07T19:49:49.209Z,23.87
2018-10-07T19:52:17.132Z,12.90
2018-10-07T19:54:44.917Z,15.60
2018-10-07T19:57:12.742Z,12.40
2018-10-07T19:59:40.653Z,9.63
2018-10-07T20:02:08.476Z,7.80
2018-10-07T20:04:36.424Z,13.77
2018-10-07T20:07:04.212Z,8.60
2018-10-07T20:09:32.034Z,7.50
2018-10-07T20:11:59.802Z,8.37
2018-10-07T20:14:27.559Z,10.40
2018-10-07T20:16:55.329Z,13.10
2018-10-07T20:19:23.102Z,11.40
2018-10-07T20:21:50.949Z,11.53
2018-10-07T20:24:18.760Z,8.57
2018-10-07T20:26:46.561Z,6.87
2018-10-07T20:29:14.329Z,9.63
2018-10-07T20:31:42.103Z,7.93
2018-10-07T20:34:09.975Z,9.40
2018-10-07T20:36:37.791Z,14.70
2018-10-07T20:39:07.258Z,9.47
2018-10-07T20:41:35.034Z,11.00
2018-10-07T20:44:02.824Z,9.60
2018-10-07T20:46:30.640Z,9.87
2018-10-07T20:48:58.482Z,10.10
2018-10-07T20:51:26.344Z,9.33
2018-10-07T20:53:54.097Z,8.63
2018-10-07T20:56:21.904Z,14.57
2018-10-07T20:58:49.707Z,12.80
2018-10-07T21:01:17.482Z,8.90
2018-10-07T21:03:45.269Z,10.93
2018-10-07T21:06:13.073Z,11.93
2018-10-07T21:08:41.028Z,11.07
2018-10-07T21:11:08.825Z,12.07
2018-10-07T21:13:36.646Z,10.53
2018-10-07T21:16:04.458Z,9.53
2018-10-07T21:18:32.488Z,10.10
2018-10-07T21:21:00.293Z,11.47
2018-10-07T21:23:28.107Z,10.40
2018-10-07T21:25:55.944Z,11.10
2018-10-07T21:28:23.814Z,10.50
2018-10-07T21:30:51.581Z,14.57
2018-10-07T21:33:19.364Z,11.20
2018-10-07T21:35:47.160Z,10.40
2018-10-07T21:38:15.521Z,9.43
2018-10-07T21:40:43.372Z,12.40
2018-10-07T21:43:11.230Z,10.63
2018-10-07T21:45:38.998Z,8.40
2018-10-07T21:48:06.848Z,11.63
2018-10-07T21:50:34.647Z,9.40
2018-10-07T21:53:02.422Z,8.60
2018-10-07T21:55:30.210Z,10.67
2018-10-07T21:57:57.969Z,10.43
2018-10-07T22:00:25.831Z,10.87
2018-10-07T22:02:53.578Z,13.87
2018-10-07T22:05:21.354Z,14.87
2018-10-07T22:07:49.186Z,14.10
2018-10-07T22:10:16.951Z,13.53
2018-10-07T22:12:44.752Z,9.57
2018-10-07T22:15:12.510Z,9.90
2018-10-07T22:17:41.663Z,10.20
2018-10-07T22:20:10.740Z,10.60
2018-10-07T22:22:38.530Z,14.70
2018-10-07T22:25:06.326Z,13.67
2018-10-07T22:27:34.233Z,13.93
2018-10-07T22:30:02.068Z,10.23
2018-10-07T22:32:29.858Z,14.37
2018-10-07T22:34:57.726Z,10.57
2018-10-07T22:37:25.596Z,10.80
2018-10-07T22:39:53.367Z,8.57
2018-10-07T22:42:21.142Z,9.90
2018-10-07T22:44:50.235Z,9.27
2018-10-07T22:47:18.147Z,13.77
2018-10-07T22:49:46.113Z,9.37
2018-10-07T22:52:13.914Z,9.30
2018-10-07T22:54:41.726Z,9.50
2018-10-07T22:57:09.526Z,10.63
2018-10-07T22:59:37.404Z,12.60
2018-10-07T23:02:05.237Z,14.00
2018-10-07T23:04:32.996Z,11.67
2018-10-07T23:07:00.825Z,11.03
2018-10-07T23:09:28.609Z,11.17
2018-10-07T23:11:56.448Z,9.73
2018-10-07T23:14:24.264Z,11.07
2018-10-07T23:16:52.102Z,13.97
2018-10-07T23:19:19.881Z,12.57
2018-10-07T23:21:47.705Z,13.50
2018-10-07T23:24:15.481Z,13.83
2018-10-07T23:26:43.245Z,11.00
2018-10-07T23:29:11.132Z,12.73
2018-10-07T23:31:38.915Z,12.40
2018-10-07T23:34:07.022Z,13.33
2018-10-07T23:36:34.846Z,15.17
2018-10-07T23:39:02.794Z,10.57
2018-10-07T23:41:30.633Z,8.97
2018-10-07T23:43:58.410Z,11.47
2018-10-07T23:46:26.275Z,12.77
2018-10-07T23:48:54.047Z,12.47
2018-10-07T23:51:21.896Z,12.33
2018-10-07T23:53:49.702Z,11.03
2018-10-07T23:56:17.481Z,11.40
2018-10-07T23:58:46.465Z,15.00
